createdAt,value
2019-05-19T00:00:05.625Z,771.96
2019-05-19T00:01:05.584Z,772.04
2019-05-19T00:02:05.583Z,772.14
2019-05-19T00:03:05.595Z,772.18
2019-05-19T00:04:05.614Z,772.22
2019-05-19T00:05:05.548Z,772.24
2019-05-19T00:06:05.551Z,772.32
2019-05-19T00:07:05.532Z,772.38
2019-05-19T00:08:05.546Z,772.38
2019-05-19T00:09:05.507Z,772.47
2019-05-19T00:10:05.532Z,772.58
2019-05-19T00:11:05.494Z,772.65
2019-05-19T00:12:05.461Z,772.75
2019-05-19T00:13:05.531Z,772.85
2019-05-19T00:14:05.487Z,772.92
2019-05-19T00:15:05.436Z,773.01
2019-05-19T00:16:05.410Z,773.08
2019-05-19T00:17:05.438Z,773.10
2019-05-19T00:18:05.407Z,773.09
2019-05-19T00:19:05.425Z,773.14
2019-05-19T00:20:05.378Z,773.16
2019-05-19T00:21:05.394Z,773.15
2019-05-19T00:22:05.344Z,773.22
2019-05-19T00:23:05.330Z,773.28
2019-05-19T00:24:05.350Z,773.36
2019-05-19T00:25:05.314Z,773.35
2019-05-19T00:26:05.310Z,773.43
2019-05-19T00:27:34.033Z,773.64
2019-05-19T00:28:35.061Z,773.55
2019-05-19T00:29:35.000Z,773.56
2019-05-19T00:30:35.020Z,773.62
2019-05-19T00:31:34.995Z,773.66
2019-05-19T00:32:34.986Z,773.65
2019-05-19T00:33:34.989Z,773.64
2019-05-19T00:34:34.956Z,773.62
2019-05-19T00:35:35.034Z,773.62
2019-05-19T00:36:34.958Z,773.60
2019-05-19T00:37:34.968Z,773.57
2019-05-19T00:38:34.950Z,773.54
2019-05-19T00:39:34.918Z,773.53
2019-05-19T00:40:34.913Z,773.56
2019-05-19T00:41:34.884Z,773.62
2019-05-19T00:42:34.872Z,773.69
2019-05-19T00:43:34.889Z,773.73
2019-05-19T00:44:34.884Z,773.76
2019-05-19T00:45:34.842Z,773.76
2019-05-19T00:46:34.843Z,773.79
2019-05-19T00:47:34.842Z,773.79
2019-05-19T00:48:34.795Z,773.76
2019-05-19T00:49:41.286Z,773.75
2019-05-19T00:50:34.786Z,773.74
2019-05-19T00:51:34.792Z,773.70
2019-05-19T00:52:34.765Z,773.66
2019-05-19T00:53:34.769Z,773.66
2019-05-19T00:54:34.743Z,773.67
2019-05-19T00:55:34.742Z,773.68
2019-05-19T00:56:34.729Z,773.69
2019-05-19T00:57:34.719Z,773.65
2019-05-19T00:58:34.693Z,773.59
2019-05-19T00:59:34.711Z,773.57
2019-05-19T01:00:34.666Z,773.56
2019-05-19T01:01:34.668Z,773.55
2019-05-19T01:02:34.651Z,773.58
2019-05-19T01:03:34.635Z,773.57
2019-05-19T01:04:34.641Z,773.56
2019-05-19T01:05:34.615Z,773.56
2019-05-19T01:06:34.593Z,773.54
2019-05-19T01:07:34.604Z,773.51
2019-05-19T01:08:34.571Z,773.46
2019-05-19T01:09:34.602Z,773.46
2019-05-19T01:10:34.560Z,773.40
2019-05-19T01:11:34.546Z,773.23
2019-05-19T01:12:34.555Z,773.17
2019-05-19T01:13:34.523Z,773.08
2019-05-19T01:14:34.538Z,773.02
2019-05-19T01:15:34.520Z,772.99
2019-05-19T01:16:34.535Z,772.95
2019-05-19T01:17:34.474Z,772.94
2019-05-19T01:18:34.490Z,772.93
2019-05-19T01:19:34.473Z,772.93
2019-05-19T01:20:34.445Z,772.97
2019-05-19T01:21:34.452Z,773.05
2019-05-19T01:22:34.440Z,773.11
2019-05-19T01:23:34.418Z,773.15
2019-05-19T01:24:34.417Z,773.24
2019-05-19T01:25:34.409Z,773.28
2019-05-19T01:26:34.425Z,773.28
2019-05-19T01:27:34.410Z,773.34
2019-05-19T01:28:34.355Z,773.40
2019-05-19T01:29:34.349Z,773.43
2019-05-19T01:30:34.340Z,773.45
2019-05-19T01:31:34.342Z,773.48
2019-05-19T01:32:34.334Z,773.54
2019-05-19T01:33:34.345Z,773.59
2019-05-19T01:34:34.307Z,773.64
2019-05-19T01:35:34.294Z,773.73
2019-05-19T01:36:34.284Z,773.84
2019-05-19T01:37:34.309Z,773.91
2019-05-19T01:38:34.263Z,773.99
2019-05-19T01:39:34.263Z,774.05
2019-05-19T01:40:34.246Z,774.11
2019-05-19T01:41:34.470Z,774.16
2019-05-19T01:42:34.248Z,774.14
2019-05-19T01:43:34.185Z,774.18
2019-05-19T01:44:34.182Z,774.21
2019-05-19T01:45:34.179Z,774.20
2019-05-19T01:46:34.175Z,774.26
2019-05-19T01:47:34.140Z,774.27
2019-05-19T01:48:34.143Z,774.28
2019-05-19T01:49:34.151Z,774.32
2019-05-19T01:50:34.119Z,774.37
2019-05-19T01:51:34.133Z,774.40
2019-05-19T01:52:34.094Z,774.43
2019-05-19T01:53:34.098Z,774.41
2019-05-19T01:54:34.794Z,774.46
2019-05-19T01:55:34.080Z,774.49
2019-05-19T01:56:34.047Z,774.47
2019-05-19T01:57:34.053Z,774.48
2019-05-19T01:58:34.023Z,774.49
2019-05-19T01:59:34.011Z,774.51
2019-05-19T02:00:34.014Z,774.47
2019-05-19T02:01:33.988Z,774.46
2019-05-19T02:02:33.970Z,774.44
2019-05-19T02:03:33.957Z,774.44
2019-05-19T02:04:33.959Z,774.50
2019-05-19T02:05:33.960Z,774.53
2019-05-19T02:06:33.975Z,774.53
2019-05-19T02:07:33.964Z,774.55
2019-05-19T02:08:33.910Z,774.53
2019-05-19T02:09:33.907Z,774.50
2019-05-19T02:10:33.899Z,774.41
2019-05-19T02:11:33.897Z,774.36
2019-05-19T02:12:33.874Z,774.27
2019-05-19T02:13:33.869Z,774.23
2019-05-19T02:14:33.835Z,774.19
2019-05-19T02:15:33.846Z,774.17
2019-05-19T02:16:33.825Z,774.16
2019-05-19T02:17:33.840Z,774.16
2019-05-19T02:18:33.846Z,774.20
2019-05-19T02:19:33.786Z,774.17
2019-05-19T02:20:34.154Z,774.11
2019-05-19T02:21:33.760Z,774.10
2019-05-19T02:22:33.758Z,774.07
2019-05-19T02:23:33.743Z,774.02
2019-05-19T02:24:33.725Z,774.00
2019-05-19T02:25:33.763Z,774.01
2019-05-19T02:26:33.710Z,773.99
2019-05-19T02:37:57.050Z,774.40
2019-05-19T02:38:57.929Z,774.25
2019-05-19T02:39:57.919Z,774.24
2019-05-19T02:40:57.925Z,774.25
2019-05-19T02:41:57.893Z,774.24
2019-05-19T02:42:57.892Z,774.27
2019-05-19T02:43:57.865Z,774.29
2019-05-19T02:44:57.869Z,774.32
2019-05-19T02:45:57.886Z,774.30
2019-05-19T02:46:57.845Z,774.34
2019-05-19T02:47:57.842Z,774.34
2019-05-19T02:48:57.806Z,774.41
2019-05-19T02:49:57.811Z,774.42
2019-05-19T02:50:57.825Z,774.38
2019-05-19T02:51:57.807Z,774.37
2019-05-19T02:52:57.764Z,774.44
2019-05-19T02:53:57.760Z,774.50
2019-05-19T02:54:57.756Z,774.53
2019-05-19T02:55:57.756Z,774.57
2019-05-19T02:56:57.717Z,774.65
2019-05-19T02:57:57.726Z,774.69
2019-05-19T02:58:57.700Z,774.79
2019-05-19T02:59:57.725Z,774.77
2019-05-19T03:00:57.695Z,774.88
2019-05-19T03:01:57.668Z,774.94
2019-05-19T03:02:57.667Z,774.95
2019-05-19T03:03:57.658Z,774.98
2019-05-19T03:04:57.629Z,775.06
2019-05-19T03:05:57.651Z,775.07
2019-05-19T03:06:57.615Z,775.07
2019-05-19T03:07:57.606Z,775.08
2019-05-19T03:08:57.596Z,775.07
2019-05-19T03:09:57.573Z,775.03
2019-05-19T03:10:57.590Z,775.00
2019-05-19T03:11:57.556Z,774.94
2019-05-19T03:12:57.547Z,774.93
2019-05-19T03:13:57.547Z,774.87
2019-05-19T03:14:57.527Z,774.84
2019-05-19T03:15:57.524Z,774.89
2019-05-19T03:16:57.513Z,774.92
2019-05-19T03:17:57.491Z,774.96
2019-05-19T03:18:57.483Z,774.99
2019-05-19T03:19:57.521Z,774.98
2019-05-19T03:21:10.574Z,774.92
2019-05-19T03:21:57.489Z,774.90
2019-05-19T03:22:57.460Z,774.85
2019-05-19T03:23:57.438Z,774.76
2019-05-19T03:24:57.405Z,774.69
2019-05-19T03:25:57.432Z,774.65
2019-05-19T03:26:57.386Z,774.61
2019-05-19T03:27:57.479Z,774.67
2019-05-19T03:28:57.393Z,774.72
2019-05-19T03:29:58.208Z,774.76
2019-05-19T03:30:57.388Z,774.82
2019-05-19T03:31:57.744Z,774.91
2019-05-19T03:32:57.413Z,774.86
2019-05-19T03:33:58.248Z,774.92
2019-05-19T03:34:58.208Z,774.95
2019-05-19T03:35:57.430Z,774.99
2019-05-19T03:36:57.349Z,775.01
2019-05-19T03:37:57.412Z,775.04
2019-05-19T03:38:57.314Z,775.07
2019-05-19T03:39:57.262Z,775.07
2019-05-19T03:40:57.245Z,775.07
2019-05-19T03:41:57.268Z,775.16
2019-05-19T03:42:57.231Z,775.17
2019-05-19T03:43:57.230Z,775.10
2019-05-19T03:44:57.197Z,775.03
2019-05-19T03:45:57.186Z,775.01
2019-05-19T03:46:57.196Z,775.02
2019-05-19T03:47:57.161Z,775.03
2019-05-19T03:48:57.159Z,775.05
2019-05-19T03:49:57.134Z,775.08
2019-05-19T03:50:57.154Z,775.08
2019-05-19T03:51:57.707Z,775.10
2019-05-19T03:52:57.117Z,775.14
2019-05-19T03:53:57.106Z,775.21
2019-05-19T03:54:57.098Z,775.24
2019-05-19T03:55:57.084Z,775.28
2019-05-19T03:56:57.069Z,775.30
2019-05-19T03:57:57.065Z,775.37
2019-05-19T03:58:57.077Z,775.41
2019-05-19T03:59:57.031Z,775.44
2019-05-19T04:00:57.045Z,775.44
2019-05-19T04:01:57.751Z,775.44
2019-05-19T04:02:57.010Z,775.46
2019-05-19T04:03:56.993Z,775.48
2019-05-19T04:04:56.985Z,775.40
2019-05-19T04:05:56.984Z,775.42
2019-05-19T04:06:56.996Z,775.39
2019-05-19T04:07:56.953Z,775.38
2019-05-19T04:08:56.959Z,775.34
2019-05-19T04:09:56.929Z,775.27
2019-05-19T04:10:56.906Z,775.19
2019-05-19T04:11:56.934Z,775.15
2019-05-19T04:12:56.885Z,775.13
2019-05-19T04:13:56.979Z,775.15
2019-05-19T04:14:56.871Z,775.15
2019-05-19T04:15:56.871Z,775.15
2019-05-19T04:16:56.876Z,775.16
2019-05-19T04:17:56.844Z,775.09
2019-05-19T04:18:56.835Z,775.03
2019-05-19T04:19:56.809Z,774.97
2019-05-19T04:20:56.801Z,774.88
2019-05-19T04:21:56.825Z,774.84
2019-05-19T04:22:56.788Z,774.80
2019-05-19T04:23:56.821Z,774.72
2019-05-19T04:24:56.743Z,774.65
2019-05-19T04:25:56.749Z,774.63
2019-05-19T04:26:56.764Z,774.61
2019-05-19T04:27:56.722Z,774.59
2019-05-19T04:28:56.719Z,774.61
2019-05-19T04:29:56.717Z,774.62
2019-05-19T04:30:56.688Z,774.60
2019-05-19T04:31:56.716Z,774.54
2019-05-19T04:32:56.656Z,774.50
2019-05-19T04:33:56.673Z,774.45
2019-05-19T04:35:57.550Z,774.35
2019-05-19T04:36:56.640Z,774.31
2019-05-19T04:39:05.897Z,774.32
2019-05-19T04:40:06.786Z,774.21
2019-05-19T04:41:06.779Z,774.15
2019-05-19T04:42:06.805Z,774.14
2019-05-19T04:43:06.787Z,774.06
2019-05-19T04:44:06.737Z,773.93
2019-05-19T04:45:06.735Z,773.86
2019-05-19T04:46:06.730Z,773.79
2019-05-19T04:47:06.764Z,773.74
2019-05-19T04:48:09.358Z,773.71
2019-05-19T04:49:06.693Z,773.68
2019-05-19T04:50:06.713Z,773.64
2019-05-19T04:51:06.665Z,773.64
2019-05-19T04:52:07.507Z,773.55
2019-05-19T04:53:06.643Z,773.50
2019-05-19T04:54:06.623Z,773.40
2019-05-19T04:55:06.618Z,773.29
2019-05-19T04:56:06.608Z,773.18
2019-05-19T04:57:06.620Z,773.05
2019-05-19T04:58:06.592Z,772.86
2019-05-19T04:59:06.574Z,772.69
2019-05-19T05:00:06.578Z,772.58
2019-05-19T05:01:06.578Z,772.57
2019-05-19T05:02:06.571Z,772.57
2019-05-19T05:03:06.540Z,772.44
2019-05-19T05:04:06.564Z,772.39
2019-05-19T05:05:06.530Z,772.39
2019-05-19T05:06:06.506Z,772.30
2019-05-19T05:07:06.544Z,772.14
2019-05-19T05:08:06.484Z,771.96
2019-05-19T05:09:06.471Z,771.76
2019-05-19T05:10:06.486Z,771.62
2019-05-19T05:11:06.435Z,771.50
2019-05-19T05:12:06.434Z,771.38
2019-05-19T05:13:06.413Z,771.19
2019-05-19T05:14:06.409Z,770.99
2019-05-19T05:15:06.408Z,770.82
2019-05-19T05:16:06.385Z,770.78
2019-05-19T05:17:06.412Z,770.79
2019-05-19T05:18:06.362Z,770.81
2019-05-19T05:19:06.373Z,770.82
2019-05-19T05:20:06.345Z,770.80
2019-05-19T05:21:06.331Z,770.89
2019-05-19T05:22:19.936Z,770.86
2019-05-19T05:23:06.304Z,770.71
2019-05-19T05:24:06.294Z,770.58
2019-05-19T05:25:06.293Z,770.60
2019-05-19T05:26:06.268Z,770.49
2019-05-19T05:27:06.273Z,770.40
2019-05-19T05:28:06.261Z,770.30
2019-05-19T05:29:06.265Z,770.30
2019-05-19T05:30:06.243Z,770.26
2019-05-19T05:31:06.215Z,770.25
2019-05-19T05:32:06.221Z,770.24
2019-05-19T05:33:06.197Z,770.22
2019-05-19T05:34:06.180Z,770.13
2019-05-19T05:35:06.182Z,769.90
2019-05-19T05:36:06.219Z,769.97
2019-05-19T05:37:06.212Z,769.94
2019-05-19T05:38:06.150Z,769.89
2019-05-19T05:39:06.154Z,770.12
2019-05-19T05:40:06.153Z,770.15
2019-05-19T05:41:06.101Z,770.21
2019-05-19T05:42:06.142Z,770.19
2019-05-19T05:43:06.088Z,770.33
2019-05-19T05:44:06.105Z,770.36
2019-05-19T05:45:06.112Z,770.32
2019-05-19T05:46:06.092Z,770.21
2019-05-19T05:47:06.077Z,770.03
2019-05-19T05:48:06.068Z,769.98
2019-05-19T05:49:06.578Z,769.95
2019-05-19T05:50:06.029Z,769.91
2019-05-19T05:51:06.001Z,769.71
2019-05-19T05:52:06.028Z,769.52
2019-05-19T05:53:05.994Z,769.39
2019-05-19T05:54:05.966Z,769.19
2019-05-19T05:55:05.969Z,769.07
2019-05-19T05:56:05.959Z,768.91
2019-05-19T05:57:05.983Z,768.67
2019-05-19T05:58:05.979Z,768.52
2019-05-19T05:59:05.959Z,768.31
2019-05-19T06:00:05.930Z,768.31
2019-05-19T06:01:05.886Z,768.25
2019-05-19T06:02:05.888Z,768.10
2019-05-19T06:03:05.913Z,768.03
2019-05-19T06:04:05.877Z,768.04
2019-05-19T06:05:05.850Z,767.85
2019-05-19T06:06:05.836Z,767.74
2019-05-19T06:07:05.845Z,767.64
2019-05-19T06:08:05.852Z,767.46
2019-05-19T06:09:05.802Z,767.41
2019-05-19T06:10:05.810Z,767.32
2019-05-19T06:11:05.766Z,767.35
2019-05-19T06:12:05.769Z,767.46
2019-05-19T06:13:05.781Z,767.48
2019-05-19T06:14:05.794Z,767.48
2019-05-19T06:15:05.724Z,767.45
2019-05-19T06:16:05.712Z,767.31
2019-05-19T06:17:05.723Z,767.30
2019-05-19T06:18:05.788Z,767.25
2019-05-19T06:19:05.758Z,767.15
2019-05-19T06:20:05.813Z,767.08
2019-05-19T06:21:05.667Z,767.04
2019-05-19T06:22:05.654Z,767.05
2019-05-19T06:23:05.687Z,767.03
2019-05-19T06:24:05.635Z,766.92
2019-05-19T06:25:05.657Z,766.93
2019-05-19T06:26:05.612Z,766.91
2019-05-19T06:27:05.617Z,766.92
2019-05-19T06:28:05.633Z,767.19
2019-05-19T06:29:05.575Z,767.30
2019-05-19T06:30:08.483Z,767.27
2019-05-19T06:31:05.563Z,767.23
2019-05-19T06:32:05.542Z,767.10
2019-05-19T06:33:05.568Z,766.90
2019-05-19T06:34:05.514Z,766.67
2019-05-19T06:35:06.083Z,766.57
2019-05-19T06:36:05.496Z,766.53
2019-05-19T06:37:05.485Z,766.39
2019-05-19T06:38:05.498Z,766.54
2019-05-19T06:40:14.167Z,766.45
2019-05-19T06:41:15.188Z,766.41
2019-05-19T06:42:15.163Z,766.43
2019-05-19T06:43:15.165Z,766.40
2019-05-19T06:44:15.136Z,766.38
2019-05-19T06:45:15.119Z,766.24
2019-05-19T06:46:15.132Z,766.08
2019-05-19T06:47:15.131Z,766.08
2019-05-19T06:48:15.109Z,766.02
2019-05-19T06:49:15.104Z,766.07
2019-05-19T06:50:15.100Z,765.97
2019-05-19T06:51:15.062Z,765.84
2019-05-19T06:52:15.065Z,765.96
2019-05-19T06:53:15.174Z,765.92
2019-05-19T06:54:15.032Z,765.86
2019-05-19T06:55:15.050Z,765.71
2019-05-19T06:56:15.013Z,765.58
2019-05-19T06:57:14.997Z,765.56
2019-05-19T06:58:15.022Z,765.39
2019-05-19T06:59:15.031Z,765.25
2019-05-19T07:00:14.974Z,765.34
2019-05-19T07:01:14.945Z,765.45
2019-05-19T07:02:14.941Z,765.61
2019-05-19T07:03:14.954Z,765.50
2019-05-19T07:04:14.910Z,765.29
2019-05-19T07:05:14.899Z,765.07
2019-05-19T07:06:14.892Z,764.81
2019-05-19T07:07:14.889Z,765.13
2019-05-19T07:08:14.887Z,765.10
2019-05-19T07:09:14.877Z,764.88
2019-05-19T07:10:14.861Z,764.57
2019-05-19T07:11:14.840Z,764.18
2019-05-19T07:12:14.836Z,763.80
2019-05-19T07:13:14.832Z,763.68
2019-05-19T07:14:14.812Z,763.51
2019-05-19T07:15:14.854Z,763.30
2019-05-19T07:16:14.794Z,763.53
2019-05-19T07:17:14.774Z,764.10
2019-05-19T07:18:14.797Z,764.26
2019-05-19T07:19:14.761Z,764.07
2019-05-19T07:20:14.767Z,763.98
2019-05-19T07:21:14.729Z,763.92
2019-05-19T07:22:14.721Z,763.91
2019-05-19T07:23:27.367Z,763.82
2019-05-19T07:24:14.730Z,763.81
2019-05-19T07:25:14.678Z,763.68
2019-05-19T07:26:14.674Z,763.74
2019-05-19T07:27:14.660Z,763.48
2019-05-19T07:28:14.646Z,763.38
2019-05-19T07:29:14.654Z,763.37
2019-05-19T07:30:14.625Z,763.26
2019-05-19T07:31:14.624Z,762.99
2019-05-19T07:32:14.619Z,763.06
2019-05-19T07:33:14.603Z,763.59
2019-05-19T07:34:14.610Z,763.46
2019-05-19T07:35:14.570Z,763.29
2019-05-19T07:36:14.583Z,763.11
2019-05-19T07:37:14.564Z,762.83
2019-05-19T07:38:14.548Z,762.50
2019-05-19T07:39:14.567Z,762.76
2019-05-19T07:40:14.524Z,762.78
2019-05-19T07:41:14.514Z,762.65
2019-05-19T07:42:14.507Z,762.47
2019-05-19T07:43:14.530Z,762.39
2019-05-19T07:44:14.503Z,762.31
2019-05-19T07:45:14.472Z,762.09
2019-05-19T07:46:14.466Z,761.92
2019-05-19T07:47:14.447Z,761.84
2019-05-19T07:48:14.442Z,761.85
2019-05-19T07:49:14.444Z,762.10
2019-05-19T07:50:14.446Z,761.93
2019-05-19T07:51:14.401Z,762.06
2019-05-19T07:52:14.400Z,761.79
2019-05-19T07:53:14.421Z,761.60
2019-05-19T07:54:14.400Z,761.42
2019-05-19T07:55:14.364Z,761.34
2019-05-19T07:56:14.360Z,761.30
2019-05-19T07:57:14.375Z,761.38
2019-05-19T07:58:14.339Z,761.46
2019-05-19T07:59:14.328Z,761.68
2019-05-19T08:00:14.325Z,761.89
2019-05-19T08:01:14.323Z,762.09
2019-05-19T08:02:14.299Z,762.11
2019-05-19T08:03:14.286Z,761.99
2019-05-19T08:04:14.311Z,761.76
2019-05-19T08:05:14.251Z,761.80
2019-05-19T08:06:14.239Z,761.79
2019-05-19T08:07:14.253Z,761.75
2019-05-19T08:08:14.242Z,761.72
2019-05-19T08:09:14.220Z,761.90
2019-05-19T08:10:14.235Z,761.78
2019-05-19T08:11:14.231Z,761.63
2019-05-19T08:12:14.180Z,761.36
2019-05-19T08:13:14.176Z,761.36
2019-05-19T08:14:14.152Z,761.44
2019-05-19T08:15:14.160Z,761.29
2019-05-19T08:16:14.142Z,761.23
2019-05-19T08:17:14.140Z,761.08
2019-05-19T08:18:14.124Z,761.31
2019-05-19T08:19:14.120Z,761.23
2019-05-19T08:20:14.136Z,761.39
2019-05-19T08:21:14.088Z,761.94
2019-05-19T08:22:14.934Z,762.24
2019-05-19T08:23:14.072Z,761.96
2019-05-19T08:24:14.060Z,761.66
2019-05-19T08:25:14.048Z,761.33
2019-05-19T08:26:14.067Z,761.03
2019-05-19T08:27:14.047Z,760.75
2019-05-19T08:28:14.054Z,760.44
2019-05-19T08:29:14.043Z,760.24
2019-05-19T08:30:14.017Z,759.97
2019-05-19T08:31:14.009Z,759.72
2019-05-19T08:32:13.979Z,759.62
2019-05-19T08:33:13.975Z,759.74
2019-05-19T08:34:13.939Z,759.80
2019-05-19T08:35:13.953Z,759.76
2019-05-19T08:36:13.930Z,759.77
2019-05-19T08:37:13.914Z,759.73
2019-05-19T08:38:13.895Z,759.57
2019-05-19T08:39:13.887Z,759.48
2019-05-19T08:41:23.081Z,759.84
2019-05-19T08:42:24.056Z,759.73
2019-05-19T08:43:24.036Z,759.57
2019-05-19T08:44:24.028Z,759.40
2019-05-19T08:45:24.030Z,759.42
2019-05-19T08:46:24.013Z,759.53
2019-05-19T08:47:23.994Z,759.57
2019-05-19T08:48:23.995Z,759.37
2019-05-19T08:49:24.010Z,759.23
2019-05-19T08:50:23.978Z,759.18
2019-05-19T08:51:23.949Z,759.33
2019-05-19T08:52:23.954Z,759.64
2019-05-19T08:53:23.964Z,759.61
2019-05-19T08:54:23.923Z,759.35
2019-05-19T08:55:23.921Z,759.02
2019-05-19T08:56:23.930Z,758.72
2019-05-19T08:57:23.877Z,758.75
2019-05-19T08:58:23.881Z,758.74
2019-05-19T08:59:23.884Z,759.04
2019-05-19T09:00:23.875Z,759.02
2019-05-19T09:01:23.843Z,758.84
2019-05-19T09:02:23.827Z,758.50
2019-05-19T09:03:23.821Z,758.37
2019-05-19T09:04:23.808Z,758.22
2019-05-19T09:05:23.821Z,758.05
2019-05-19T09:06:23.785Z,758.37
2019-05-19T09:07:23.772Z,758.29
2019-05-19T09:08:23.830Z,757.99
2019-05-19T09:09:23.757Z,757.88
2019-05-19T09:10:23.771Z,757.85
2019-05-19T09:11:23.745Z,757.71
2019-05-19T09:12:23.723Z,757.77
2019-05-19T09:13:23.702Z,758.10
2019-05-19T09:14:23.721Z,758.28
2019-05-19T09:15:23.703Z,758.43
2019-05-19T09:16:23.689Z,758.35
2019-05-19T09:17:23.682Z,758.16
2019-05-19T09:18:23.657Z,758.01
2019-05-19T09:19:23.656Z,758.46
2019-05-19T09:20:23.634Z,758.48
2019-05-19T09:21:23.664Z,758.22
2019-05-19T09:22:23.620Z,757.97
2019-05-19T09:23:23.597Z,757.64
2019-05-19T09:24:30.437Z,757.40
2019-05-19T09:25:23.581Z,757.51
2019-05-19T09:26:23.599Z,757.42
2019-05-19T09:27:23.581Z,757.66
2019-05-19T09:28:23.544Z,757.82
2019-05-19T09:29:23.547Z,757.62
2019-05-19T09:30:23.580Z,757.57
2019-05-19T09:31:23.543Z,757.31
2019-05-19T09:32:23.506Z,757.24
2019-05-19T09:33:23.486Z,757.11
2019-05-19T09:34:23.502Z,757.01
2019-05-19T09:35:23.463Z,757.15
2019-05-19T09:36:23.506Z,757.12
2019-05-19T09:37:23.469Z,757.03
2019-05-19T09:38:23.451Z,756.80
2019-05-19T09:39:23.440Z,756.76
2019-05-19T09:40:26.522Z,757.09
2019-05-19T09:41:23.443Z,757.12
2019-05-19T09:42:23.400Z,757.19
2019-05-19T09:43:23.403Z,757.64
2019-05-19T09:44:23.382Z,757.83
2019-05-19T09:45:23.355Z,757.98
2019-05-19T09:46:23.472Z,758.04
2019-05-19T09:47:23.346Z,758.13
2019-05-19T09:48:23.354Z,758.37
2019-05-19T09:49:23.314Z,758.19
2019-05-19T09:50:23.321Z,757.93
2019-05-19T09:51:23.362Z,757.92
2019-05-19T09:52:23.283Z,757.84
2019-05-19T09:53:23.290Z,757.94
2019-05-19T09:54:23.267Z,757.92
2019-05-19T09:55:23.387Z,757.99
2019-05-19T09:56:23.268Z,758.16
2019-05-19T09:57:23.235Z,758.10
2019-05-19T09:58:23.255Z,757.99
2019-05-19T09:59:23.223Z,758.09
2019-05-19T10:00:23.203Z,758.70
2019-05-19T10:01:23.218Z,759.13
2019-05-19T10:02:23.206Z,759.04
2019-05-19T10:03:23.160Z,758.67
2019-05-19T10:04:23.171Z,758.22
2019-05-19T10:05:23.148Z,758.06
2019-05-19T10:06:23.139Z,758.12
2019-05-19T10:07:23.142Z,757.79
2019-05-19T10:08:23.111Z,757.54
2019-05-19T10:09:23.144Z,757.57
2019-05-19T10:10:23.113Z,757.50
2019-05-19T10:11:23.152Z,757.62
2019-05-19T10:12:23.086Z,757.68
2019-05-19T10:13:23.063Z,757.81
2019-05-19T10:14:23.056Z,757.96
2019-05-19T10:15:23.048Z,758.14
2019-05-19T10:16:23.037Z,758.23
2019-05-19T10:17:23.042Z,758.16
2019-05-19T10:18:23.007Z,758.13
2019-05-19T10:19:22.992Z,758.22
2019-05-19T10:20:22.985Z,758.22
2019-05-19T10:21:22.995Z,758.18
2019-05-19T10:22:22.993Z,757.93
2019-05-19T10:23:22.961Z,757.61
2019-05-19T10:24:22.939Z,757.23
2019-05-19T10:25:23.451Z,756.99
2019-05-19T10:26:22.918Z,756.81
2019-05-19T10:27:22.927Z,756.81
2019-05-19T10:28:22.904Z,757.18
2019-05-19T10:29:22.880Z,757.30
2019-05-19T10:30:22.871Z,757.42
2019-05-19T10:31:22.866Z,757.25
2019-05-19T10:32:22.918Z,756.93
2019-05-19T10:33:22.845Z,756.59
2019-05-19T10:34:22.856Z,756.27
2019-05-19T10:35:22.812Z,756.05
2019-05-19T10:36:22.819Z,756.04
2019-05-19T10:37:22.839Z,755.98
2019-05-19T10:38:22.776Z,756.15
2019-05-19T10:39:22.778Z,756.27
2019-05-19T10:40:22.763Z,756.13
2019-05-19T10:42:31.953Z,756.72
2019-05-19T10:43:32.933Z,756.76
2019-05-19T10:44:32.931Z,756.77
2019-05-19T10:45:32.911Z,756.72
2019-05-19T10:46:32.902Z,756.44
2019-05-19T10:47:32.911Z,756.22
2019-05-19T10:48:32.872Z,756.05
2019-05-19T10:49:32.868Z,756.44
2019-05-19T10:50:32.852Z,756.75
2019-05-19T10:51:32.853Z,756.57
2019-05-19T10:52:32.853Z,756.61
2019-05-19T10:53:32.822Z,756.64
2019-05-19T10:54:32.815Z,756.96
2019-05-19T10:55:36.437Z,757.34
2019-05-19T10:56:32.806Z,757.43
2019-05-19T10:57:32.808Z,757.33
2019-05-19T10:58:32.769Z,757.30
2019-05-19T10:59:32.768Z,757.14
2019-05-19T11:00:32.745Z,756.97
2019-05-19T11:01:32.738Z,756.98
2019-05-19T11:02:32.744Z,756.82
2019-05-19T11:03:32.724Z,756.57
2019-05-19T11:04:32.708Z,756.29
2019-05-19T11:05:32.697Z,756.10
2019-05-19T11:06:32.697Z,756.11
2019-05-19T11:07:32.690Z,756.28
2019-05-19T11:08:32.673Z,756.33
2019-05-19T11:09:32.656Z,756.29
2019-05-19T11:10:32.632Z,756.25
2019-05-19T11:11:32.630Z,756.27
2019-05-19T11:12:32.640Z,756.24
2019-05-19T11:13:32.711Z,756.29
2019-05-19T11:14:32.599Z,756.39
2019-05-19T11:15:32.595Z,756.53
2019-05-19T11:16:32.587Z,756.77
2019-05-19T11:17:32.565Z,756.62
2019-05-19T11:18:32.574Z,756.36
2019-05-19T11:19:32.542Z,756.53
2019-05-19T11:20:32.530Z,756.71
2019-05-19T11:21:32.527Z,756.77
2019-05-19T11:22:32.506Z,757.18
2019-05-19T11:23:32.511Z,757.16
2019-05-19T11:24:32.485Z,757.01
2019-05-19T11:25:34.310Z,756.94
2019-05-19T11:26:32.473Z,756.61
2019-05-19T11:27:32.461Z,756.55
2019-05-19T11:28:32.466Z,756.26
2019-05-19T11:29:32.436Z,756.04
2019-05-19T11:30:32.422Z,755.92
2019-05-19T11:31:32.429Z,755.74
2019-05-19T11:32:32.427Z,755.42
2019-05-19T11:33:32.745Z,755.39
2019-05-19T11:34:32.400Z,755.66
2019-05-19T11:35:32.372Z,756.07
2019-05-19T11:36:32.367Z,756.08
2019-05-19T11:37:32.350Z,755.98
2019-05-19T11:38:32.372Z,755.83
2019-05-19T11:39:32.329Z,755.82
2019-05-19T11:40:32.317Z,755.59
2019-05-19T11:41:32.317Z,755.26
2019-05-19T11:42:32.316Z,755.09
2019-05-19T11:43:32.308Z,755.70
2019-05-19T11:44:32.286Z,756.01
2019-05-19T11:45:32.260Z,755.90
2019-05-19T11:46:32.263Z,755.85
2019-05-19T11:47:32.247Z,755.95
2019-05-19T11:48:32.266Z,755.67
2019-05-19T11:49:32.250Z,756.10
2019-05-19T11:50:32.212Z,756.21
2019-05-19T11:51:32.209Z,756.18
2019-05-19T11:52:32.191Z,756.12
2019-05-19T11:53:32.216Z,755.90
2019-05-19T11:54:32.165Z,755.58
2019-05-19T11:55:32.184Z,755.56
2019-05-19T11:56:32.160Z,755.52
2019-05-19T11:57:32.150Z,755.63
2019-05-19T11:58:32.147Z,755.93
2019-05-19T11:59:32.149Z,756.19
2019-05-19T12:00:32.148Z,756.29
2019-05-19T12:01:32.111Z,756.16
2019-05-19T12:02:32.108Z,756.04
2019-05-19T12:03:32.093Z,755.91
2019-05-19T12:04:32.111Z,755.73
2019-05-19T12:05:32.099Z,755.56
2019-05-19T12:06:39.409Z,755.34
2019-05-19T12:07:32.051Z,755.22
2019-05-19T12:08:32.035Z,755.12
2019-05-19T12:09:32.049Z,755.14
2019-05-19T12:10:32.019Z,754.97
2019-05-19T12:11:32.012Z,755.11
2019-05-19T12:12:31.990Z,755.21
2019-05-19T12:13:34.823Z,755.14
2019-05-19T12:14:31.992Z,754.97
2019-05-19T12:15:31.971Z,754.77
2019-05-19T12:16:31.957Z,754.65
2019-05-19T12:17:31.930Z,754.53
2019-05-19T12:18:31.940Z,754.55
2019-05-19T12:19:31.932Z,754.86
2019-05-19T12:20:31.899Z,754.97
2019-05-19T12:21:31.893Z,755.02
2019-05-19T12:22:31.881Z,754.80
2019-05-19T12:23:31.866Z,754.69
2019-05-19T12:24:31.875Z,754.49
2019-05-19T12:25:31.846Z,754.31
2019-05-19T12:26:34.709Z,754.12
2019-05-19T12:27:31.855Z,754.16
2019-05-19T12:28:31.859Z,754.30
2019-05-19T12:29:31.859Z,754.45
2019-05-19T12:30:31.821Z,754.74
2019-05-19T12:31:31.788Z,754.69
2019-05-19T12:32:31.782Z,754.52
2019-05-19T12:33:31.770Z,754.29
2019-05-19T12:34:31.765Z,754.50
2019-05-19T12:35:31.772Z,754.48
2019-05-19T12:36:31.737Z,754.42
2019-05-19T12:37:31.722Z,754.59
2019-05-19T12:38:31.696Z,754.67
2019-05-19T12:39:31.736Z,754.71
2019-05-19T12:40:31.684Z,754.64
2019-05-19T12:41:31.667Z,754.28
2019-05-19T12:43:52.154Z,754.82
2019-05-19T12:44:53.117Z,755.20
2019-05-19T12:45:53.104Z,755.40